createdAt,value
2017-03-17T00:00:31.569Z,19.78
2017-03-17T00:01:41.869Z,19.84
2017-03-17T00:02:52.177Z,19.77
2017-03-17T00:04:02.516Z,19.81
2017-03-17T00:05:13.303Z,19.87
2017-03-17T00:06:23.636Z,19.75
2017-03-17T00:07:33.930Z,19.82
2017-03-17T00:08:44.247Z,19.84
2017-03-17T00:09:54.555Z,19.81
2017-03-17T00:11:05.159Z,19.81
2017-03-17T00:12:15.476Z,19.79
2017-03-17T00:13:25.783Z,19.74
2017-03-17T00:14:36.096Z,19.78
2017-03-17T00:15:46.389Z,19.79
2017-03-17T00:16:56.989Z,19.79
2017-03-17T00:18:07.280Z,19.7
2017-03-17T00:19:17.582Z,19.71
2017-03-17T00:20:27.889Z,19.78
2017-03-17T00:21:38.187Z,19.77
2017-03-17T00:22:48.499Z,19.78
2017-03-17T00:23:58.807Z,19.77
2017-03-17T00:25:09.103Z,19.71
2017-03-17T00:26:19.450Z,19.72
2017-03-17T00:27:29.441Z,19.74
2017-03-17T00:28:40.051Z,19.81
2017-03-17T00:29:50.339Z,19.75
2017-03-17T00:31:00.627Z,19.74
2017-03-17T00:32:10.932Z,19.72
2017-03-17T00:33:21.242Z,19.77
2017-03-17T00:34:31.527Z,19.77
2017-03-17T00:35:41.521Z,19.75
2017-03-17T00:36:51.503Z,19.78
2017-03-17T00:38:01.799Z,19.72
2017-03-17T00:39:12.100Z,19.71
2017-03-17T00:40:22.712Z,19.84
2017-03-17T00:41:33.009Z,19.84
2017-03-17T00:42:43.312Z,19.79
2017-03-17T00:43:53.607Z,19.77
2017-03-17T00:45:03.591Z,19.82
2017-03-17T00:46:13.912Z,19.79
2017-03-17T00:47:24.315Z,19.7
2017-03-17T00:48:34.608Z,19.66
2017-03-17T00:49:44.926Z,19.63
2017-03-17T00:50:55.220Z,19.7
2017-03-17T00:52:05.191Z,19.67
2017-03-17T00:53:15.495Z,19.77
2017-03-17T00:54:25.799Z,19.71
2017-03-17T00:55:36.103Z,19.7
2017-03-17T00:56:46.088Z,19.7
2017-03-17T00:57:56.676Z,19.66
2017-03-17T00:59:06.973Z,19.66
2017-03-17T01:00:16.951Z,19.62
2017-03-17T01:01:27.326Z,19.64
2017-03-17T01:02:37.001Z,19.6
2017-03-17T01:03:47.294Z,19.63
2017-03-17T01:04:57.597Z,19.59
2017-03-17T01:06:07.894Z,19.64
2017-03-17T01:07:18.212Z,19.63
2017-03-17T01:08:28.509Z,19.72
2017-03-17T01:09:38.813Z,19.56
2017-03-17T01:10:49.101Z,19.63
2017-03-17T01:11:59.402Z,19.66
2017-03-17T01:13:09.690Z,19.7
2017-03-17T01:14:19.992Z,19.64
2017-03-17T01:15:30.599Z,19.75
2017-03-17T01:16:40.903Z,19.72
2017-03-17T01:17:51.203Z,19.7
2017-03-17T01:19:01.191Z,19.71
2017-03-17T01:20:11.482Z,19.67
2017-03-17T01:21:21.755Z,19.74
2017-03-17T01:22:32.061Z,19.66
2017-03-17T01:23:42.357Z,19.66
2017-03-17T01:24:52.657Z,19.64
2017-03-17T01:26:02.964Z,19.66
2017-03-17T01:27:13.559Z,19.57
2017-03-17T01:28:23.861Z,19.56
2017-03-17T01:29:34.164Z,19.6
2017-03-17T01:30:44.148Z,19.56
2017-03-17T01:31:54.455Z,19.52
2017-03-17T01:33:04.996Z,19.53
2017-03-17T01:34:14.967Z,19.57
2017-03-17T01:35:25.261Z,19.52
2017-03-17T01:36:35.244Z,19.6
2017-03-17T01:37:45.546Z,19.57
2017-03-17T01:38:56.196Z,19.59
2017-03-17T01:40:06.180Z,19.6
2017-03-17T01:41:16.471Z,19.66
2017-03-17T01:42:26.765Z,19.63
2017-03-17T01:43:37.062Z,19.67
2017-03-17T01:44:47.655Z,19.56
2017-03-17T01:45:57.966Z,19.64
2017-03-17T01:47:07.949Z,19.59
2017-03-17T01:48:17.937Z,19.6
2017-03-17T01:49:28.233Z,19.53
2017-03-17T01:50:38.519Z,19.62
2017-03-17T01:51:48.814Z,19.64
2017-03-17T01:52:58.788Z,19.57
2017-03-17T01:54:08.776Z,19.6
2017-03-17T01:55:18.772Z,19.56
2017-03-17T01:56:29.364Z,19.53
2017-03-17T01:57:39.360Z,19.57
2017-03-17T01:58:49.658Z,19.57
2017-03-17T01:59:59.959Z,19.59
2017-03-17T02:01:10.244Z,19.49
2017-03-17T02:02:20.525Z,19.49
2017-03-17T02:03:31.165Z,19.56
2017-03-17T02:04:41.150Z,19.6
2017-03-17T02:05:51.435Z,19.6
2017-03-17T02:07:01.108Z,19.57
2017-03-17T02:08:11.391Z,19.6
2017-03-17T02:09:21.683Z,19.56
2017-03-17T02:10:31.976Z,19.6
2017-03-17T02:11:42.273Z,19.56
2017-03-17T02:12:52.589Z,19.55
2017-03-17T02:14:02.880Z,19.57
2017-03-17T02:15:12.858Z,19.59
2017-03-17T02:16:22.844Z,19.62
2017-03-17T02:17:32.819Z,19.59
2017-03-17T02:18:42.504Z,19.53
2017-03-17T02:19:53.111Z,19.53
2017-03-17T02:21:03.454Z,19.57
2017-03-17T02:22:13.431Z,19.56
2017-03-17T02:23:23.719Z,19.55
2017-03-17T02:24:34.021Z,19.57
2017-03-17T02:25:44.621Z,19.59
2017-03-17T02:26:54.605Z,19.52
2017-03-17T02:28:04.898Z,19.56
2017-03-17T02:29:15.200Z,19.57
2017-03-17T02:30:25.498Z,19.49
2017-03-17T02:31:35.780Z,19.59
2017-03-17T02:32:46.068Z,19.57
2017-03-17T02:33:56.110Z,19.55
2017-03-17T02:35:06.410Z,19.57
2017-03-17T02:36:16.077Z,19.57
2017-03-17T02:37:26.671Z,19.55
2017-03-17T02:38:36.967Z,19.52
2017-03-17T02:39:47.258Z,19.55
2017-03-17T02:40:57.252Z,19.49
2017-03-17T02:42:07.555Z,19.56
2017-03-17T02:43:18.166Z,19.53
2017-03-17T02:44:28.471Z,19.49
2017-03-17T02:45:38.763Z,19.57
2017-03-17T02:46:48.436Z,19.56
2017-03-17T02:47:58.734Z,19.53
2017-03-17T02:49:09.330Z,19.52
2017-03-17T02:50:19.652Z,19.57
2017-03-17T02:51:29.953Z,19.49
2017-03-17T02:52:40.250Z,19.57
2017-03-17T02:53:50.548Z,19.59
2017-03-17T02:55:01.159Z,19.59
2017-03-17T02:56:11.143Z,19.59
2017-03-17T02:57:21.440Z,19.55
2017-03-17T02:58:31.777Z,19.56
2017-03-17T02:59:42.075Z,19.57
2017-03-17T03:00:52.673Z,19.49
2017-03-17T03:02:02.973Z,19.42
2017-03-17T03:03:13.274Z,19.47
2017-03-17T03:04:23.585Z,19.53
2017-03-17T03:05:33.887Z,19.55
2017-03-17T03:06:44.480Z,19.55
2017-03-17T03:07:54.779Z,19.48
2017-03-17T03:09:05.088Z,19.57
2017-03-17T03:10:15.390Z,19.49
2017-03-17T03:11:25.696Z,19.6
2017-03-17T03:12:36.289Z,19.49
2017-03-17T03:13:46.597Z,19.49
2017-03-17T03:14:56.580Z,19.41
2017-03-17T03:16:06.568Z,19.49
2017-03-17T03:17:16.861Z,19.55
2017-03-17T03:18:27.479Z,19.49
2017-03-17T03:19:37.475Z,19.48
2017-03-17T03:20:47.755Z,19.53
2017-03-17T03:21:57.744Z,19.48
2017-03-17T03:23:08.049Z,19.39
2017-03-17T03:24:18.657Z,19.52
2017-03-17T03:25:28.961Z,19.48
2017-03-17T03:26:39.268Z,19.42
2017-03-17T03:27:49.245Z,19.39
2017-03-17T03:28:59.579Z,19.49
2017-03-17T03:30:10.170Z,19.47
2017-03-17T03:31:20.493Z,19.49
2017-03-17T03:32:30.778Z,19.45
2017-03-17T03:33:40.775Z,19.48
2017-03-17T03:34:50.755Z,19.41
2017-03-17T03:36:01.385Z,19.52
2017-03-17T03:37:11.354Z,19.44
2017-03-17T03:38:21.652Z,19.45
2017-03-17T03:39:31.956Z,19.53
2017-03-17T03:40:42.260Z,19.44
2017-03-17T03:41:52.844Z,19.48
2017-03-17T03:43:02.850Z,19.38
2017-03-17T03:44:13.163Z,19.39
2017-03-17T03:45:23.452Z,19.41
2017-03-17T03:46:33.753Z,19.42
2017-03-17T03:47:44.360Z,19.48
2017-03-17T03:48:54.669Z,19.45
2017-03-17T03:50:04.963Z,19.47
2017-03-17T03:51:15.265Z,19.52
2017-03-17T03:52:25.248Z,19.38
2017-03-17T03:53:35.846Z,19.42
2017-03-17T03:54:46.149Z,19.41
2017-03-17T03:55:56.438Z,19.41
2017-03-17T03:57:06.439Z,19.48
2017-03-17T03:58:16.731Z,19.47
2017-03-17T03:59:27.019Z,19.52
2017-03-17T04:00:36.692Z,19.47
2017-03-17T04:01:46.989Z,19.45
2017-03-17T04:02:57.284Z,19.44
2017-03-17T04:04:07.286Z,19.44
2017-03-17T04:05:17.883Z,19.44
2017-03-17T04:06:27.869Z,19.47
2017-03-17T04:07:38.170Z,19.48
2017-03-17T04:08:48.475Z,19.49
2017-03-17T04:09:58.782Z,19.44
2017-03-17T04:11:09.069Z,19.42
2017-03-17T04:12:19.377Z,19.48
2017-03-17T04:13:29.677Z,19.48
2017-03-17T04:14:40.009Z,19.42
2017-03-17T04:15:50.305Z,19.44
2017-03-17T04:17:00.592Z,19.42
2017-03-17T04:18:10.574Z,19.42
2017-03-17T04:19:20.876Z,19.48
2017-03-17T04:20:31.188Z,19.38
2017-03-17T04:21:41.487Z,19.41
2017-03-17T04:22:51.777Z,19.39
2017-03-17T04:24:01.761Z,19.35
2017-03-17T04:25:11.757Z,19.35
2017-03-17T04:26:21.734Z,19.39
2017-03-17T04:27:31.713Z,19.38
2017-03-17T04:28:42.315Z,19.37
2017-03-17T04:29:52.302Z,19.35
2017-03-17T04:31:02.593Z,19.34
2017-03-17T04:32:12.883Z,19.37
2017-03-17T04:33:23.179Z,19.39
2017-03-17T04:34:33.776Z,19.35
2017-03-17T04:35:44.080Z,19.3
2017-03-17T04:36:54.372Z,19.32
2017-03-17T04:38:04.678Z,19.39
2017-03-17T04:39:14.979Z,19.35
2017-03-17T04:40:25.283Z,19.42
2017-03-17T04:41:35.578Z,19.32
2017-03-17T04:42:45.923Z,19.34
2017-03-17T04:43:56.218Z,19.38
2017-03-17T04:45:06.534Z,19.41
2017-03-17T04:46:16.804Z,19.32
2017-03-17T04:47:26.781Z,19.34
2017-03-17T04:48:37.081Z,19.32
2017-03-17T04:49:47.377Z,19.38
2017-03-17T04:50:57.674Z,19.34
2017-03-17T04:52:07.960Z,19.38
2017-03-17T04:53:18.264Z,19.38
2017-03-17T04:54:28.560Z,19.42
2017-03-17T04:55:38.857Z,19.44
2017-03-17T04:56:48.864Z,19.35
2017-03-17T04:57:59.449Z,19.35
2017-03-17T04:59:09.438Z,19.3
2017-03-17T05:00:19.735Z,19.37
2017-03-17T05:01:29.411Z,19.41
2017-03-17T05:02:39.712Z,19.32
2017-03-17T05:03:50.330Z,19.32
2017-03-17T05:05:00.320Z,19.34
2017-03-17T05:06:10.294Z,19.34
2017-03-17T05:07:20.586Z,19.35
2017-03-17T05:08:30.887Z,19.37
2017-03-17T05:09:41.492Z,19.35
2017-03-17T05:10:51.798Z,19.38
2017-03-17T05:12:02.087Z,19.35
2017-03-17T05:13:12.368Z,19.42
2017-03-17T05:14:22.695Z,19.35
2017-03-17T05:15:33.312Z,19.37
2017-03-17T05:16:43.614Z,19.37
2017-03-17T05:17:53.908Z,19.35
2017-03-17T05:19:04.215Z,19.45
2017-03-17T05:20:14.525Z,19.37
2017-03-17T05:21:24.807Z,19.45
2017-03-17T05:22:34.794Z,19.44
2017-03-17T05:23:45.103Z,19.52
2017-03-17T05:24:55.088Z,19.44
2017-03-17T05:26:05.399Z,19.44
2017-03-17T05:27:15.995Z,19.38
2017-03-17T05:28:25.976Z,19.45
2017-03-17T05:29:36.282Z,19.38
2017-03-17T05:30:46.291Z,19.37
2017-03-17T05:31:56.584Z,19.44
2017-03-17T05:33:06.864Z,19.48
2017-03-17T05:34:17.164Z,19.41
2017-03-17T05:35:27.168Z,19.41
2017-03-17T05:36:37.478Z,19.42
2017-03-17T05:37:47.786Z,19.44
2017-03-17T05:38:58.385Z,19.48
2017-03-17T05:40:08.701Z,19.49
2017-03-17T05:41:19.034Z,19.45
2017-03-17T05:42:29.335Z,19.42
2017-03-17T05:43:39.666Z,19.42
2017-03-17T05:44:50.276Z,19.44
2017-03-17T05:46:00.583Z,19.45
2017-03-17T05:47:10.868Z,19.42
2017-03-17T05:48:20.863Z,19.41
2017-03-17T05:49:31.171Z,19.41
2017-03-17T05:50:41.453Z,19.41
2017-03-17T05:51:51.757Z,19.49
2017-03-17T05:53:02.069Z,19.42
2017-03-17T05:54:12.388Z,19.45
2017-03-17T05:55:22.395Z,19.59
2017-03-17T05:56:32.998Z,19.53
2017-03-17T05:57:43.440Z,19.52
2017-03-17T05:58:53.795Z,19.53
2017-03-17T06:00:04.112Z,19.57
2017-03-17T06:01:14.103Z,19.59
2017-03-17T06:02:24.711Z,19.55
2017-03-17T06:03:35.024Z,19.63
2017-03-17T06:04:45.319Z,19.53
2017-03-17T06:05:55.622Z,19.62
2017-03-17T06:07:05.917Z,19.63
2017-03-17T06:08:16.516Z,19.63
2017-03-17T06:09:26.816Z,19.56
2017-03-17T06:10:37.114Z,19.57
2017-03-17T06:11:47.421Z,19.6
2017-03-17T06:12:57.725Z,19.59
2017-03-17T06:14:08.011Z,19.57
2017-03-17T06:15:18.305Z,19.63
2017-03-17T06:16:28.596Z,19.63
2017-03-17T06:17:38.279Z,19.64
2017-03-17T06:18:48.273Z,19.66
2017-03-17T06:19:58.884Z,19.66
2017-03-17T06:21:09.197Z,19.67
2017-03-17T06:22:19.504Z,19.67
2017-03-17T06:23:29.841Z,19.63
2017-03-17T06:24:40.145Z,19.74
2017-03-17T06:25:50.752Z,19.72
2017-03-17T06:27:01.059Z,19.72
2017-03-17T06:28:11.360Z,19.72
2017-03-17T06:29:21.358Z,19.72
2017-03-17T06:30:31.673Z,19.7
2017-03-17T06:31:42.430Z,19.72
2017-03-17T06:32:52.741Z,19.81
2017-03-17T06:34:02.733Z,19.7
2017-03-17T06:35:12.720Z,19.78
2017-03-17T06:36:23.015Z,19.75
2017-03-17T06:37:33.664Z,19.66
2017-03-17T06:38:43.981Z,19.82
2017-03-17T06:39:53.987Z,19.82
2017-03-17T06:41:04.299Z,19.77
2017-03-17T06:42:14.310Z,19.82
2017-03-17T06:43:24.615Z,19.75
2017-03-17T06:44:34.918Z,19.78
2017-03-17T06:45:45.233Z,19.77
2017-03-17T06:46:55.245Z,19.85
2017-03-17T06:48:05.240Z,19.77
2017-03-17T06:49:15.226Z,19.85
2017-03-17T06:50:25.779Z,19.75
2017-03-17T06:51:36.090Z,19.85
2017-03-17T06:52:46.394Z,19.85
2017-03-17T06:53:56.717Z,19.85
2017-03-17T06:55:06.998Z,19.84
2017-03-17T06:56:17.298Z,19.84
2017-03-17T06:57:27.593Z,19.89
2017-03-17T06:58:37.569Z,19.79
2017-03-17T06:59:47.879Z,19.87
2017-03-17T07:00:58.486Z,19.87
2017-03-17T07:02:08.467Z,19.92
2017-03-17T07:03:18.775Z,19.87
2017-03-17T07:04:29.078Z,19.87
2017-03-17T07:05:39.441Z,19.87
2017-03-17T07:06:50.045Z,19.87
2017-03-17T07:08:00.346Z,19.87
2017-03-17T07:09:10.663Z,19.9
2017-03-17T07:10:20.973Z,19.85
2017-03-17T07:11:31.277Z,19.82
2017-03-17T07:12:41.890Z,19.85
2017-03-17T07:13:52.222Z,19.99
2017-03-17T07:15:02.538Z,19.93
2017-03-17T07:16:12.534Z,19.84
2017-03-17T07:17:22.839Z,19.84
2017-03-17T07:18:33.495Z,19.9
2017-03-17T07:19:43.504Z,20
2017-03-17T07:20:53.862Z,19.94
2017-03-17T07:22:03.884Z,19.84
2017-03-17T07:23:14.238Z,19.96
2017-03-17T07:24:24.857Z,19.94
2017-03-17T07:25:35.169Z,19.82
2017-03-17T07:26:45.159Z,19.99
2017-03-17T07:27:55.470Z,20.04
2017-03-17T07:29:05.809Z,20.04
2017-03-17T07:30:16.409Z,20.14
2017-03-17T07:31:26.720Z,20.14
2017-03-17T07:32:37.011Z,20.19
2017-03-17T07:33:47.326Z,20.22
2017-03-17T07:34:57.636Z,20.19
2017-03-17T07:36:08.239Z,20.26
2017-03-17T07:37:18.537Z,20.19
2017-03-17T07:41:22.768Z,20.24
2017-03-17T07:42:33.087Z,20.27
2017-03-17T07:43:43.412Z,20.21
2017-03-17T07:44:53.419Z,20.24
2017-03-17T07:46:03.431Z,20.27
2017-03-17T07:47:13.400Z,20.26
2017-03-17T07:48:23.751Z,20.26
2017-03-17T07:49:34.147Z,20.18
2017-03-17T07:50:44.499Z,20.27
2017-03-17T07:51:54.802Z,20.27
2017-03-17T07:53:05.428Z,20.24
2017-03-17T07:54:15.149Z,20.21
2017-03-17T07:55:25.472Z,20.24
2017-03-17T07:56:35.469Z,20.19
2017-03-17T07:57:45.469Z,20.27
2017-03-17T07:58:56.092Z,20.21
2017-03-17T08:00:06.096Z,20.32
2017-03-17T08:01:16.099Z,20.3
2017-03-17T08:02:26.093Z,20.19
2017-03-17T08:03:36.164Z,20.33
2017-03-17T08:04:46.477Z,20.24
2017-03-17T08:05:56.510Z,20.3
2017-03-17T08:07:06.839Z,20.27
2017-03-17T08:08:16.848Z,20.34
2017-03-17T08:09:27.175Z,20.26
2017-03-17T08:10:37.793Z,20.33
2017-03-17T08:11:47.512Z,20.36
2017-03-17T08:12:57.852Z,20.33
2017-03-17T08:14:08.193Z,20.34
2017-03-17T08:15:18.532Z,20.33
2017-03-17T08:16:28.530Z,20.29
2017-03-17T08:17:38.848Z,20.33
2017-03-17T08:18:49.178Z,20.46
2017-03-17T08:19:59.508Z,20.42
2017-03-17T08:21:09.834Z,20.44
2017-03-17T08:22:20.451Z,20.49
2017-03-17T08:23:30.758Z,20.4
2017-03-17T08:24:40.758Z,20.48
2017-03-17T08:25:51.081Z,20.48
2017-03-17T08:27:01.392Z,20.48
2017-03-17T08:28:12.019Z,20.5
2017-03-17T08:29:22.346Z,20.56
2017-03-17T08:30:32.666Z,20.52
2017-03-17T08:31:42.979Z,20.6
2017-03-17T08:32:52.659Z,20.67
2017-03-17T08:34:03.280Z,20.66
2017-03-17T08:35:13.262Z,20.68
2017-03-17T08:36:23.549Z,20.67
2017-03-17T08:37:33.853Z,20.74
2017-03-17T08:38:44.170Z,20.67
2017-03-17T08:39:54.636Z,20.71
2017-03-17T08:41:05.011Z,20.75
2017-03-17T08:42:15.318Z,20.78
2017-03-17T08:43:25.641Z,20.78
2017-03-17T08:44:35.971Z,20.78
2017-03-17T08:45:46.650Z,20.82
2017-03-17T08:46:56.658Z,20.78
2017-03-17T08:48:06.655Z,20.8
2017-03-17T08:49:16.982Z,20.74
2017-03-17T08:50:27.338Z,20.74
2017-03-17T08:51:37.977Z,20.71
2017-03-17T08:52:47.997Z,20.75
2017-03-17T08:53:58.007Z,20.77
2017-03-17T08:55:08.349Z,20.68
2017-03-17T08:56:18.678Z,20.8
2017-03-17T08:57:28.989Z,20.78
2017-03-17T08:58:39.055Z,20.77
2017-03-17T08:59:49.103Z,20.89
2017-03-17T09:00:59.466Z,20.88
2017-03-17T09:02:09.789Z,20.83
2017-03-17T09:03:20.143Z,20.85
2017-03-17T09:04:30.144Z,20.89
2017-03-17T09:05:40.470Z,20.92
2017-03-17T09:06:50.483Z,20.86
2017-03-17T09:08:00.489Z,20.95
2017-03-17T09:09:10.811Z,20.92
2017-03-17T09:10:21.130Z,20.86
2017-03-17T09:11:31.152Z,20.96
2017-03-17T09:12:41.503Z,20.92
2017-03-17T09:13:51.502Z,21.07
2017-03-17T09:15:02.112Z,21.08
2017-03-17T09:16:12.429Z,21.05
2017-03-17T09:17:22.733Z,21.05
2017-03-17T09:18:33.047Z,21
2017-03-17T09:19:42.731Z,21.14
2017-03-17T09:20:53.337Z,21.1
2017-03-17T09:22:03.673Z,21.11
2017-03-17T09:23:13.994Z,21.08
2017-03-17T09:24:24.318Z,21.14
2017-03-17T09:25:34.624Z,21.19
2017-03-17T09:26:45.269Z,21.17
2017-03-17T09:27:55.649Z,21.19
2017-03-17T09:29:06.170Z,21.29
2017-03-17T09:30:16.193Z,21.22
2017-03-17T09:31:26.192Z,21.29
2017-03-17T09:32:36.796Z,21.28
2017-03-17T09:33:47.138Z,21.26
2017-03-17T09:34:57.469Z,21.32
2017-03-17T09:36:07.777Z,21.22
2017-03-17T09:37:17.840Z,21.23
2017-03-17T09:38:28.135Z,21.26
2017-03-17T09:39:38.451Z,21.38
2017-03-17T09:40:48.804Z,21.35
2017-03-17T09:41:59.127Z,21.32
2017-03-17T09:43:09.499Z,21.26
2017-03-17T09:44:19.810Z,21.23
2017-03-17T09:45:30.133Z,21.28
2017-03-17T09:46:40.457Z,21.26
2017-03-17T09:47:50.774Z,21.33
2017-03-17T09:49:01.090Z,21.32
2017-03-17T09:50:11.808Z,21.29
2017-03-17T09:51:22.281Z,21.23
2017-03-17T09:52:32.296Z,21.33
2017-03-17T09:53:42.617Z,21.3
2017-03-17T09:54:52.980Z,21.3
2017-03-17T09:56:03.654Z,21.28
2017-03-17T09:57:13.975Z,21.22
2017-03-17T09:58:24.356Z,21.28
2017-03-17T09:59:34.678Z,21.26
2017-03-17T10:00:44.995Z,21.23
2017-03-17T10:01:55.615Z,21.23
2017-03-17T10:03:05.625Z,21.29
2017-03-17T10:04:15.953Z,21.23
2017-03-17T10:05:26.043Z,21.26
2017-03-17T10:06:36.374Z,21.28
2017-03-17T10:07:46.371Z,21.22
2017-03-17T10:08:56.694Z,21.19
2017-03-17T10:10:07.205Z,21.29
2017-03-17T10:11:17.215Z,21.23
2017-03-17T10:12:27.533Z,21.25
2017-03-17T10:13:38.063Z,21.19
2017-03-17T10:14:48.073Z,21.17
2017-03-17T10:15:58.397Z,21.19
2017-03-17T10:17:08.711Z,21.32
2017-03-17T10:18:19.060Z,21.26
2017-03-17T10:19:29.065Z,21.28
2017-03-17T10:20:39.072Z,21.2
2017-03-17T10:21:49.405Z,21.23
2017-03-17T10:23:00.000Z,21.1
2017-03-17T10:24:10.365Z,21.14
2017-03-17T10:25:20.049Z,21.14
2017-03-17T10:26:30.356Z,21.05
2017-03-17T10:27:40.669Z,21.14
2017-03-17T10:28:50.996Z,21.04
2017-03-17T10:30:01.013Z,21.19
2017-03-17T10:31:11.315Z,21.17
2017-03-17T10:32:21.638Z,21.05
2017-03-17T10:33:31.522Z,21.03
2017-03-17T10:34:41.824Z,21.11
2017-03-17T10:35:52.137Z,21.04
2017-03-17T10:37:02.761Z,21.03
2017-03-17T10:38:13.091Z,21
2017-03-17T10:39:23.093Z,21.08
2017-03-17T10:40:33.438Z,21.1
2017-03-17T10:41:43.782Z,21
2017-03-17T10:42:54.393Z,21.11
2017-03-17T10:44:04.717Z,21.07
2017-03-17T10:45:15.045Z,21.04
2017-03-17T10:46:25.072Z,21.03
2017-03-17T10:47:35.455Z,21.01
2017-03-17T10:48:45.553Z,21.04
2017-03-17T10:49:55.867Z,21.04
2017-03-17T10:51:05.859Z,21.03
2017-03-17T10:52:16.192Z,21.01
2017-03-17T10:53:26.499Z,21.11
2017-03-17T10:54:36.838Z,21.01
2017-03-17T10:55:46.838Z,21.03
2017-03-17T10:56:57.158Z,21.05
2017-03-17T10:58:07.467Z,21.05
2017-03-17T10:59:17.823Z,20.93
2017-03-17T11:00:28.136Z,20.95
2017-03-17T11:01:37.811Z,20.86
2017-03-17T11:02:48.121Z,20.89
2017-03-17T11:03:58.433Z,20.86
2017-03-17T11:05:08.413Z,20.83
2017-03-17T11:06:19.041Z,20.8
2017-03-17T11:07:29.353Z,20.82
2017-03-17T11:08:39.360Z,20.83
2017-03-17T11:09:49.678Z,20.83
2017-03-17T11:10:59.989Z,20.71
2017-03-17T11:12:10.586Z,20.78
2017-03-17T11:13:20.585Z,20.83
2017-03-17T11:14:30.902Z,20.8
2017-03-17T11:15:41.212Z,20.8
2017-03-17T11:16:51.521Z,20.89
2017-03-17T11:18:01.824Z,20.88
2017-03-17T11:19:12.147Z,20.98
2017-03-17T11:20:22.469Z,20.95
2017-03-17T11:21:32.789Z,21.03
2017-03-17T11:22:43.350Z,20.96
2017-03-17T11:23:53.995Z,21.03
2017-03-17T11:25:04.294Z,21.15
2017-03-17T11:26:14.815Z,21.01
2017-03-17T11:27:24.824Z,21.04
2017-03-17T11:28:35.136Z,21.05
2017-03-17T11:29:45.779Z,21.11
2017-03-17T11:30:55.788Z,21.1
2017-03-17T11:32:06.117Z,21.04
2017-03-17T11:33:16.458Z,21.05
2017-03-17T11:34:26.448Z,21
2017-03-17T11:35:37.062Z,21.1
2017-03-17T11:36:47.375Z,21.22
2017-03-17T11:37:57.376Z,21.26
2017-03-17T11:39:07.696Z,21.28
2017-03-17T11:40:18.028Z,21.26
2017-03-17T11:41:28.588Z,21.32
2017-03-17T11:42:38.613Z,21.3
2017-03-17T11:43:48.630Z,21.28
2017-03-17T11:44:58.979Z,21.4
2017-03-17T11:46:09.291Z,21.35
2017-03-17T11:47:19.845Z,21.33
2017-03-17T11:48:30.194Z,21.37
2017-03-17T11:49:40.637Z,21.35
2017-03-17T11:50:51.014Z,21.44
2017-03-17T11:52:01.010Z,21.38
2017-03-17T11:53:11.254Z,21.3
2017-03-17T11:54:21.567Z,21.26
2017-03-17T11:55:31.590Z,21.29
2017-03-17T11:56:41.894Z,21.29
2017-03-17T11:57:52.214Z,21.29
2017-03-17T11:59:02.835Z,21.33
2017-03-17T12:00:13.151Z,21.28
2017-03-17T12:01:23.164Z,21.23
2017-03-17T12:02:33.474Z,21.33
2017-03-17T12:03:43.789Z,21.35
2017-03-17T12:04:54.365Z,21.3
2017-03-17T12:06:04.039Z,21.33
2017-03-17T12:07:14.041Z,21.32
2017-03-17T12:08:24.380Z,21.37
2017-03-17T12:09:34.397Z,21.33
2017-03-17T12:10:45.029Z,21.29
2017-03-17T12:11:55.354Z,21.35
2017-03-17T12:13:05.381Z,21.33
2017-03-17T12:14:15.686Z,21.3
2017-03-17T12:15:25.989Z,21.33
2017-03-17T12:16:36.287Z,21.3
2017-03-17T12:17:46.610Z,21.29
2017-03-17T12:18:56.930Z,21.3
2017-03-17T12:20:07.262Z,21.35
2017-03-17T12:21:17.616Z,21.3
2017-03-17T12:22:28.244Z,21.32
2017-03-17T12:23:38.579Z,21.32
2017-03-17T12:24:48.901Z,21.35
2017-03-17T12:25:58.911Z,21.35
2017-03-17T12:27:09.226Z,21.37
2017-03-17T12:28:19.792Z,21.23
2017-03-17T12:29:30.108Z,21.37
2017-03-17T12:30:40.406Z,21.29
2017-03-17T12:31:50.750Z,21.26
2017-03-17T12:33:01.061Z,21.23
2017-03-17T12:34:11.653Z,21.23
2017-03-17T12:35:21.660Z,21.32
2017-03-17T12:36:31.974Z,21.3
2017-03-17T12:37:41.964Z,21.3
2017-03-17T12:38:52.278Z,21.35
2017-03-17T12:40:02.892Z,21.3
2017-03-17T12:41:13.234Z,21.33
2017-03-17T12:42:23.560Z,21.29
2017-03-17T12:43:33.884Z,21.28
2017-03-17T12:44:44.220Z,21.4
2017-03-17T12:45:54.857Z,21.35
2017-03-17T12:47:05.170Z,21.28
2017-03-17T12:48:15.171Z,21.33
2017-03-17T12:49:24.862Z,21.3
2017-03-17T12:50:34.883Z,21.28
2017-03-17T12:51:45.172Z,21.33
2017-03-17T12:52:55.160Z,21.3
2017-03-17T12:54:05.504Z,21.22
2017-03-17T12:55:15.202Z,21.35
2017-03-17T12:56:25.270Z,21.35
2017-03-17T12:57:35.564Z,21.29
2017-03-17T12:58:45.629Z,21.26
2017-03-17T12:59:55.974Z,21.3
2017-03-17T13:01:06.302Z,21.32
2017-03-17T13:02:16.614Z,21.37
2017-03-17T13:03:27.246Z,21.35
2017-03-17T13:04:37.554Z,21.33
2017-03-17T13:05:47.867Z,21.33
2017-03-17T13:06:58.181Z,21.28
2017-03-17T13:08:07.871Z,21.33
2017-03-17T13:09:18.496Z,21.32
2017-03-17T13:10:28.917Z,21.26
2017-03-17T13:11:39.243Z,21.33
2017-03-17T13:12:48.929Z,21.25
2017-03-17T13:13:59.264Z,21.33
2017-03-17T13:15:09.890Z,21.25
2017-03-17T13:16:20.207Z,21.23
2017-03-17T13:17:30.531Z,21.28
2017-03-17T13:18:40.882Z,21.22
2017-03-17T13:19:51.202Z,21.3
2017-03-17T13:21:01.838Z,21.23
2017-03-17T13:22:11.542Z,21.25
2017-03-17T13:23:21.875Z,21.28
2017-03-17T13:24:31.893Z,21.3
2017-03-17T13:25:42.215Z,21.33
2017-03-17T13:26:52.545Z,21.3
2017-03-17T13:28:02.543Z,21.28
2017-03-17T13:29:12.864Z,21.33
2017-03-17T13:30:23.203Z,21.3
2017-03-17T13:31:33.525Z,21.33
2017-03-17T13:32:44.093Z,21.3
2017-03-17T13:33:54.105Z,21.3
2017-03-17T13:35:04.133Z,21.26
2017-03-17T13:36:14.134Z,21.33
2017-03-17T13:37:24.463Z,21.32
2017-03-17T13:38:35.033Z,21.3
2017-03-17T13:39:45.365Z,21.29
2017-03-17T13:40:55.692Z,21.28
2017-03-17T13:42:05.698Z,21.3
2017-03-17T13:43:16.035Z,21.29
2017-03-17T13:44:26.657Z,21.29
2017-03-17T13:45:37.029Z,21.28
2017-03-17T13:46:47.062Z,21.29
2017-03-17T13:47:57.094Z,21.29
2017-03-17T13:49:07.445Z,21.25
2017-03-17T13:50:18.069Z,21.3
2017-03-17T13:51:28.094Z,21.37
2017-03-17T13:52:38.479Z,21.25
2017-03-17T13:53:48.888Z,21.23
2017-03-17T13:54:59.302Z,21.23
2017-03-17T13:56:09.581Z,21.28
2017-03-17T13:57:19.926Z,21.29
2017-03-17T13:58:30.317Z,21.22
2017-03-17T13:59:40.708Z,21.3
2017-03-17T14:00:50.732Z,21.29
2017-03-17T14:02:01.383Z,21.22
2017-03-17T14:03:12.020Z,21.33
2017-03-17T14:04:22.370Z,21.32
2017-03-17T14:05:32.702Z,21.29
2017-03-17T14:06:43.045Z,21.28
2017-03-17T14:07:53.670Z,21.23
2017-03-17T14:09:03.983Z,21.19
2017-03-17T14:10:14.309Z,21.19
2017-03-17T14:11:24.657Z,21.15
2017-03-17T14:12:34.978Z,21.15
2017-03-17T14:13:45.286Z,21.08
2017-03-17T14:14:55.618Z,21.11
2017-03-17T14:16:05.621Z,21.08
2017-03-17T14:17:15.616Z,21.08
2017-03-17T14:18:25.971Z,21.14
2017-03-17T14:19:36.540Z,21.03
2017-03-17T14:20:46.242Z,21.04
2017-03-17T14:21:56.619Z,21.11
2017-03-17T14:23:06.921Z,21.14
2017-03-17T14:24:17.219Z,21.14
2017-03-17T14:25:27.849Z,21.14
2017-03-17T14:26:38.163Z,21.11
2017-03-17T14:27:48.493Z,21.14
2017-03-17T14:28:58.819Z,21.1
2017-03-17T14:30:09.122Z,21.03
2017-03-17T14:31:19.690Z,21.1
2017-03-17T14:32:30.022Z,21.13
2017-03-17T14:33:40.034Z,21.08
2017-03-17T14:34:50.022Z,21.15
2017-03-17T14:36:00.095Z,21.19
2017-03-17T14:37:10.656Z,21.11
2017-03-17T14:38:20.976Z,21.11
2017-03-17T14:39:31.312Z,21.15
2017-03-17T14:40:41.643Z,21.15
2017-03-17T14:41:51.961Z,21.14
2017-03-17T14:43:02.519Z,21.13
2017-03-17T14:44:12.849Z,21.08
2017-03-17T14:45:23.154Z,21.11
2017-03-17T14:46:33.148Z,21.14
2017-03-17T14:47:43.475Z,21.11
2017-03-17T14:48:54.041Z,21.15
2017-03-17T14:50:04.393Z,21.1
2017-03-17T14:51:14.705Z,21
2017-03-17T14:52:25.007Z,21.05
2017-03-17T14:53:35.330Z,21.13
2017-03-17T14:54:45.589Z,21.14
2017-03-17T14:55:55.895Z,21.11
2017-03-17T14:57:05.586Z,21.14
2017-03-17T14:58:15.888Z,21.11
2017-03-17T14:59:26.237Z,21.13
2017-03-17T15:00:36.844Z,21.15
2017-03-17T15:01:47.158Z,21.04
2017-03-17T15:02:57.496Z,20.96
2017-03-17T15:04:07.823Z,21.01
2017-03-17T15:05:18.162Z,21.08
2017-03-17T15:06:28.793Z,21.04
2017-03-17T15:07:39.157Z,21.11
2017-03-17T15:08:49.491Z,21.03
2017-03-17T15:09:59.847Z,21.13
2017-03-17T15:11:09.842Z,21.11